sensor_id;sensor_type;location;lat;lon;timestamp;pressure;altitude;pressure_sealevel;temperature;humidity
21980;BME280;11154;48.558;9.234;2022-10-26T00:01:07;97553.44;;;14.63;100.00
21980;BME280;11154;48.558;9.234;2022-10-26T00:03:08;97549.84;;;14.56;100.00
21980;BME280;11154;48.558;9.234;2022-10-26T00:05:11;97551.88;;;14.54;100.00
21980;BME280;11154;48.558;9.234;2022-10-26T00:07:13;97559.81;;;14.48;100.00
21980;BME280;11154;48.558;9.234;2022-10-26T00:09:15;97560.00;;;14.46;100.00
21980;BME280;11154;48.558;9.234;2022-10-26T00:11:17;97563.50;;;14.47;100.00
21980;BME280;11154;48.558;9.234;2022-10-26T00:13:19;97564.53;;;14.46;100.00
21980;BME280;11154;48.558;9.234;2022-10-26T00:15:21;97567.75;;;14.42;100.00
21980;BME280;11154;48.558;9.234;2022-10-26T00:17:22;97556.78;;;14.37;100.00
21980;BME280;11154;48.558;9.234;2022-10-26T00:19:24;97566.47;;;14.52;100.00
21980;BME280;11154;48.558;9.234;2022-10-26T00:21:27;97561.81;;;14.75;100.00
21980;BME280;11154;48.558;9.234;2022-10-26T00:23:29;97565.88;;;14.85;100.00
21980;BME280;11154;48.558;9.234;2022-10-26T00:25:31;97571.13;;;14.93;100.00
21980;BME280;11154;48.558;9.234;2022-10-26T00:27:33;97563.56;;;14.97;100.00
21980;BME280;11154;48.558;9.234;2022-10-26T00:29:35;97553.75;;;15.04;100.00
21980;BME280;11154;48.558;9.234;2022-10-26T00:31:37;97559.94;;;15.04;100.00
21980;BME280;11154;48.558;9.234;2022-10-26T00:33:39;97554.47;;;15.12;100.00
21980;BME280;11154;48.558;9.234;2022-10-26T00:35:40;97551.88;;;15.18;100.00
21980;BME280;11154;48.558;9.234;2022-10-26T00:37:43;97553.00;;;15.24;100.00
21980;BME280;11154;48.558;9.234;2022-10-26T00:39:45;97554.09;;;15.29;100.00
21980;BME280;11154;48.558;9.234;2022-10-26T00:41:47;97558.59;;;15.29;100.00
21980;BME280;11154;48.558;9.234;2022-10-26T00:43:49;97571.44;;;15.33;100.00
21980;BME280;11154;48.558;9.234;2022-10-26T00:45:53;97557.03;;;15.34;100.00
21980;BME280;11154;48.558;9.234;2022-10-26T00:47:57;97571.06;;;15.36;100.00
21980;BME280;11154;48.558;9.234;2022-10-26T00:50:03;97570.69;;;15.39;100.00
21980;BME280;11154;48.558;9.234;2022-10-26T00:52:07;97567.84;;;15.41;100.00
21980;BME280;11154;48.558;9.234;2022-10-26T00:54:13;97564.56;;;15.45;100.00
21980;BME280;11154;48.558;9.234;2022-10-26T00:56:17;97568.91;;;15.46;100.00
21980;BME280;11154;48.558;9.234;2022-10-26T00:58:20;97567.06;;;15.47;100.00
21980;BME280;11154;48.558;9.234;2022-10-26T01:00:22;97565.00;;;15.49;100.00
21980;BME280;11154;48.558;9.234;2022-10-26T01:02:24;97564.44;;;15.53;100.00
21980;BME280;11154;48.558;9.234;2022-10-26T01:04:26;97567.56;;;15.57;100.00
21980;BME280;11154;48.558;9.234;2022-10-26T01:06:28;97565.75;;;15.57;100.00
21980;BME280;11154;48.558;9.234;2022-10-26T01:08:30;97561.00;;;15.59;100.00
21980;BME280;11154;48.558;9.234;2022-10-26T01:10:34;97556.47;;;15.60;100.00
21980;BME280;11154;48.558;9.234;2022-10-26T01:12:37;97551.56;;;15.63;100.00
21980;BME280;11154;48.558;9.234;2022-10-26T01:14:38;97545.81;;;15.66;100.00
21980;BME280;11154;48.558;9.234;2022-10-26T01:16:50;97542.56;;;15.71;100.00
21980;BME280;11154;48.558;9.234;2022-10-26T01:19:10;97560.09;;;15.73;100.00
21980;BME280;11154;48.558;9.234;2022-10-26T01:21:40;97549.19;;;15.75;100.00
21980;BME280;11154;48.558;9.234;2022-10-26T01:24:06;97530.25;;;15.76;100.00
21980;BME280;11154;48.558;9.234;2022-10-26T01:26:40;97521.16;;;15.77;100.00
21980;BME280;11154;48.558;9.234;2022-10-26T01:29:03;97510.41;;;15.77;100.00
21980;BME280;11154;48.558;9.234;2022-10-26T01:31:14;97505.06;;;15.77;100.00
21980;BME280;11154;48.558;9.234;2022-10-26T01:33:30;97508.78;;;15.76;100.00
21980;BME280;11154;48.558;9.234;2022-10-26T01:35:37;97513.50;;;15.74;100.00
21980;BME280;11154;48.558;9.234;2022-10-26T01:37:45;97517.22;;;15.73;100.00
21980;BME280;11154;48.558;9.234;2022-10-26T01:39:52;97520.25;;;15.70;100.00
21980;BME280;11154;48.558;9.234;2022-10-26T01:41:57;97519.84;;;15.67;100.00
21980;BME280;11154;48.558;9.234;2022-10-26T01:44:03;97519.00;;;15.66;100.00
21980;BME280;11154;48.558;9.234;2022-10-26T01:46:06;97512.19;;;15.64;100.00
21980;BME280;11154;48.558;9.234;2022-10-26T01:48:12;97516.06;;;15.61;100.00
21980;BME280;11154;48.558;9.234;2022-10-26T01:50:17;97525.53;;;15.57;100.00
21980;BME280;11154;48.558;9.234;2022-10-26T01:52:20;97522.84;;;15.57;100.00
21980;BME280;11154;48.558;9.234;2022-10-26T01:54:21;97500.97;;;15.54;100.00
21980;BME280;11154;48.558;9.234;2022-10-26T01:56:25;97510.19;;;15.51;100.00
21980;BME280;11154;48.558;9.234;2022-10-26T01:58:43;97508.16;;;15.53;100.00
21980;BME280;11154;48.558;9.234;2022-10-26T02:00:58;97506.50;;;15.52;100.00
21980;BME280;11154;48.558;9.234;2022-10-26T02:03:15;97514.81;;;15.57;100.00
21980;BME280;11154;48.558;9.234;2022-10-26T02:05:35;97511.94;;;15.59;100.00
21980;BME280;11154;48.558;9.234;2022-10-26T02:07:49;97502.66;;;15.61;100.00
21980;BME280;11154;48.558;9.234;2022-10-26T02:09:58;97499.34;;;15.59;100.00
21980;BME280;11154;48.558;9.234;2022-10-26T02:12:05;97500.34;;;15.58;100.00
21980;BME280;11154;48.558;9.234;2022-10-26T02:14:13;97495.78;;;15.52;100.00
21980;BME280;11154;48.558;9.234;2022-10-26T02:16:21;97509.00;;;15.54;100.00
21980;BME280;11154;48.558;9.234;2022-10-26T02:18:30;97504.47;;;15.54;100.00
21980;BME280;11154;48.558;9.234;2022-10-26T02:20:33;97496.41;;;15.54;100.00
21980;BME280;11154;48.558;9.234;2022-10-26T02:22:39;97503.88;;;15.59;100.00
21980;BME280;11154;48.558;9.234;2022-10-26T02:24:43;97511.09;;;15.58;100.00
21980;BME280;11154;48.558;9.234;2022-10-26T02:26:47;97519.56;;;15.62;100.00
21980;BME280;11154;48.558;9.234;2022-10-26T02:28:53;97522.44;;;15.60;100.00
21980;BME280;11154;48.558;9.234;2022-10-26T02:30:58;97520.41;;;15.62;100.00
21980;BME280;11154;48.558;9.234;2022-10-26T02:33:03;97523.53;;;15.66;100.00
21980;BME280;11154;48.558;9.234;2022-10-26T02:35:08;97526.41;;;15.64;100.00
21980;BME280;11154;48.558;9.234;2022-10-26T02:37:12;97532.81;;;15.63;100.00
21980;BME280;11154;48.558;9.234;2022-10-26T02:39:17;97539.78;;;15.64;100.00
21980;BME280;11154;48.558;9.234;2022-10-26T02:41:20;97531.31;;;15.61;100.00
21980;BME280;11154;48.558;9.234;2022-10-26T02:43:24;97538.28;;;15.55;100.00
21980;BME280;11154;48.558;9.234;2022-10-26T02:45:32;97543.41;;;15.50;100.00
21980;BME280;11154;48.558;9.234;2022-10-26T02:47:34;97539.06;;;15.49;100.00
21980;BME280;11154;48.558;9.234;2022-10-26T02:49:36;97546.25;;;15.49;100.00
21980;BME280;11154;48.558;9.234;2022-10-26T02:51:44;97548.88;;;15.42;100.00
21980;BME280;11154;48.558;9.234;2022-10-26T02:53:50;97549.94;;;15.48;100.00
21980;BME280;11154;48.558;9.234;2022-10-26T02:55:54;97555.06;;;15.43;100.00
21980;BME280;11154;48.558;9.234;2022-10-26T02:57:58;97554.59;;;15.39;100.00
21980;BME280;11154;48.558;9.234;2022-10-26T03:00:02;97559.06;;;15.32;100.00
21980;BME280;11154;48.558;9.234;2022-10-26T03:02:04;97554.09;;;15.29;100.00
21980;BME280;11154;48.558;9.234;2022-10-26T03:04:06;97559.00;;;15.26;100.00
21980;BME280;11154;48.558;9.234;2022-10-26T03:06:08;97565.19;;;15.26;100.00
21980;BME280;11154;48.558;9.234;2022-10-26T03:08:11;97562.34;;;15.28;100.00
21980;BME280;11154;48.558;9.234;2022-10-26T03:10:12;97562.13;;;15.29;100.00
21980;BME280;11154;48.558;9.234;2022-10-26T03:12:14;97560.72;;;15.33;100.00
21980;BME280;11154;48.558;9.234;2022-10-26T03:14:17;97565.72;;;15.36;100.00
21980;BME280;11154;48.558;9.234;2022-10-26T03:16:18;97575.41;;;15.37;100.00
21980;BME280;11154;48.558;9.234;2022-10-26T03:18:20;97572.75;;;15.37;100.00
21980;BME280;11154;48.558;9.234;2022-10-26T03:20:22;97588.44;;;15.40;100.00
21980;BME280;11154;48.558;9.234;2022-10-26T03:22:23;97595.44;;;15.41;100.00
21980;BME280;11154;48.558;9.234;2022-10-26T03:24:26;97608.84;;;15.41;100.00
21980;BME280;11154;48.558;9.234;2022-10-26T03:26:28;97630.53;;;15.46;100.00
21980;BME280;11154;48.558;9.234;2022-10-26T03:28:30;97626.19;;;15.45;100.00
21980;BME280;11154;48.558;9.234;2022-10-26T03:30:31;97635.91;;;15.46;100.00
21980;BME280;11154;48.558;9.234;2022-10-26T03:32:33;97627.09;;;15.52;100.00
21980;BME280;11154;48.558;9.234;2022-10-26T03:34:35;97635.25;;;15.59;100.00
21980;BME280;11154;48.558;9.234;2022-10-26T03:36:36;97620.88;;;15.66;100.00
21980;BME280;11154;48.558;9.234;2022-10-26T03:38:38;97598.66;;;15.72;100.00
21980;BME280;11154;48.558;9.234;2022-10-26T03:40:41;97615.66;;;15.79;100.00
21980;BME280;11154;48.558;9.234;2022-10-26T03:42:42;97615.28;;;15.82;100.00
21980;BME280;11154;48.558;9.234;2022-10-26T03:44:44;97621.09;;;15.86;100.00
21980;BME280;11154;48.558;9.234;2022-10-26T03:46:46;97621.53;;;15.89;100.00
21980;BME280;11154;48.558;9.234;2022-10-26T03:48:48;97612.06;;;15.93;100.00
21980;BME280;11154;48.558;9.234;2022-10-26T03:50:49;97615.41;;;15.95;100.00
21980;BME280;11154;48.558;9.234;2022-10-26T03:52:51;97612.06;;;15.93;100.00
21980;BME280;11154;48.558;9.234;2022-10-26T03:54:53;97607.06;;;15.90;100.00
21980;BME280;11154;48.558;9.234;2022-10-26T03:56:55;97618.84;;;15.89;100.00
21980;BME280;11154;48.558;9.234;2022-10-26T03:58:57;97618.22;;;15.87;100.00
21980;BME280;11154;48.558;9.234;2022-10-26T04:00:59;97616.91;;;15.83;100.00
21980;BME280;11154;48.558;9.234;2022-10-26T04:03:00;97626.16;;;15.81;100.00
21980;BME280;11154;48.558;9.234;2022-10-26T04:05:03;97615.28;;;15.82;100.00
21980;BME280;11154;48.558;9.234;2022-10-26T04:07:04;97551.69;;;15.76;100.00
21980;BME280;11154;48.558;9.234;2022-10-26T04:09:06;97541.91;;;15.69;100.00
21980;BME280;11154;48.558;9.234;2022-10-26T04:11:07;97547.06;;;15.70;100.00
21980;BME280;11154;48.558;9.234;2022-10-26T04:13:10;97553.72;;;15.74;100.00
21980;BME280;11154;48.558;9.234;2022-10-26T04:15:13;97575.19;;;15.74;100.00
21980;BME280;11154;48.558;9.234;2022-10-26T04:17:15;97587.38;;;15.77;100.00
21980;BME280;11154;48.558;9.234;2022-10-26T04:19:17;97582.66;;;15.79;100.00
21980;BME280;11154;48.558;9.234;2022-10-26T04:21:18;97571.28;;;15.77;100.00
21980;BME280;11154;48.558;9.234;2022-10-26T04:23:20;97574.78;;;15.77;100.00
21980;BME280;11154;48.558;9.234;2022-10-26T04:25:22;97571.94;;;15.79;100.00
21980;BME280;11154;48.558;9.234;2022-10-26T04:27:24;97579.78;;;15.80;100.00
21980;BME280;11154;48.558;9.234;2022-10-26T04:29:27;97589.28;;;15.83;100.00
21980;BME280;11154;48.558;9.234;2022-10-26T04:31:28;97592.59;;;15.85;100.00
21980;BME280;11154;48.558;9.234;2022-10-26T04:33:30;97594.28;;;15.86;100.00
21980;BME280;11154;48.558;9.234;2022-10-26T04:35:32;97603.78;;;15.88;100.00
21980;BME280;11154;48.558;9.234;2022-10-26T04:37:33;97592.41;;;15.86;100.00
21980;BME280;11154;48.558;9.234;2022-10-26T04:39:35;97586.41;;;15.84;100.00
21980;BME280;11154;48.558;9.234;2022-10-26T04:41:37;97582.44;;;15.80;100.00
21980;BME280;11154;48.558;9.234;2022-10-26T04:43:38;97578.09;;;15.79;100.00
21980;BME280;11154;48.558;9.234;2022-10-26T04:45:41;97581.81;;;15.78;100.00
21980;BME280;11154;48.558;9.234;2022-10-26T04:47:43;97581.19;;;15.76;100.00
21980;BME280;11154;48.558;9.234;2022-10-26T04:49:44;97576.00;;;15.75;100.00
21980;BME280;11154;48.558;9.234;2022-10-26T04:51:46;97577.00;;;15.74;100.00
21980;BME280;11154;48.558;9.234;2022-10-26T04:53:48;97578.88;;;15.73;100.00
21980;BME280;11154;48.558;9.234;2022-10-26T04:55:55;97568.50;;;15.70;100.00
21980;BME280;11154;48.558;9.234;2022-10-26T04:57:56;97574.94;;;15.69;100.00
21980;BME280;11154;48.558;9.234;2022-10-26T04:59:58;97587.47;;;15.69;100.00
21980;BME280;11154;48.558;9.234;2022-10-26T05:02:02;97571.78;;;15.66;100.00
21980;BME280;11154;48.558;9.234;2022-10-26T05:04:03;97586.22;;;15.65;100.00
21980;BME280;11154;48.558;9.234;2022-10-26T05:06:05;97582.69;;;15.64;100.00
21980;BME280;11154;48.558;9.234;2022-10-26T05:08:07;97582.69;;;15.64;100.00
21980;BME280;11154;48.558;9.234;2022-10-26T05:10:09;97581.69;;;15.65;100.00
21980;BME280;11154;48.558;9.234;2022-10-26T05:12:10;97579.41;;;15.62;100.00
21980;BME280;11154;48.558;9.234;2022-10-26T05:14:12;97583.75;;;15.63;100.00
21980;BME280;11154;48.558;9.234;2022-10-26T05:16:14;97585.00;;;15.67;100.00
21980;BME280;11154;48.558;9.234;2022-10-26T05:18:17;97584.59;;;15.70;100.00
21980;BME280;11154;48.558;9.234;2022-10-26T05:20:19;97584.81;;;15.69;100.00
21980;BME280;11154;48.558;9.234;2022-10-26T05:22:21;97584.59;;;15.70;100.00
21980;BME280;11154;48.558;9.234;2022-10-26T05:24:22;97588.00;;;15.79;100.00
21980;BME280;11154;48.558;9.234;2022-10-26T05:26:24;97578.09;;;15.79;100.00
21980;BME280;11154;48.558;9.234;2022-10-26T05:28:25;97596.09;;;15.85;100.00
21980;BME280;11154;48.558;9.234;2022-10-26T05:30:28;97593.88;;;15.88;100.00
21980;BME280;11154;48.558;9.234;2022-10-26T05:32:29;97600.50;;;15.92;100.00
21980;BME280;11154;48.558;9.234;2022-10-26T05:34:32;97587.94;;;15.93;100.00
21980;BME280;11154;48.558;9.234;2022-10-26T05:36:34;97589.72;;;15.86;100.00
21980;BME280;11154;48.558;9.234;2022-10-26T05:38:36;97590.94;;;15.84;100.00
21980;BME280;11154;48.558;9.234;2022-10-26T05:40:37;97585.53;;;15.56;100.00
21980;BME280;11154;48.558;9.234;2022-10-26T05:42:39;97579.22;;;15.28;100.00
21980;BME280;11154;48.558;9.234;2022-10-26T05:44:40;97582.91;;;15.27;100.00
21980;BME280;11154;48.558;9.234;2022-10-26T05:46:42;97582.91;;;15.27;100.00
21980;BME280;11154;48.558;9.234;2022-10-26T05:48:43;97579.69;;;15.32;100.00
21980;BME280;11154;48.558;9.234;2022-10-26T05:50:47;97585.59;;;15.27;100.00
21980;BME280;11154;48.558;9.234;2022-10-26T05:52:48;97593.00;;;15.25;100.00
21980;BME280;11154;48.558;9.234;2022-10-26T05:54:50;97591.97;;;15.26;100.00
21980;BME280;11154;48.558;9.234;2022-10-26T05:56:52;97591.41;;;15.31;100.00
21980;BME280;11154;48.558;9.234;2022-10-26T05:58:54;97596.22;;;15.35;100.00
21980;BME280;11154;48.558;9.234;2022-10-26T06:01:08;97601.00;;;15.40;100.00
21980;BME280;11154;48.558;9.234;2022-10-26T06:03:21;97610.50;;;15.42;100.00
21980;BME280;11154;48.558;9.234;2022-10-26T06:05:28;97622.25;;;15.41;100.00
21980;BME280;11154;48.558;9.234;2022-10-26T06:07:33;97620.59;;;15.40;100.00
21980;BME280;11154;48.558;9.234;2022-10-26T06:09:35;97620.22;;;15.29;100.00
21980;BME280;11154;48.558;9.234;2022-10-26T06:11:38;97635.59;;;15.56;100.00
21980;BME280;11154;48.558;9.234;2022-10-26T06:13:40;97639.88;;;15.71;100.00
21980;BME280;11154;48.558;9.234;2022-10-26T06:15:49;97637.31;;;15.78;100.00
21980;BME280;11154;48.558;9.234;2022-10-26T06:18:00;97645.41;;;15.84;100.00
21980;BME280;11154;48.558;9.234;2022-10-26T06:20:21;97650.63;;;15.92;100.00
21980;BME280;11154;48.558;9.234;2022-10-26T06:22:38;97638.50;;;15.96;100.00
21980;BME280;11154;48.558;9.234;2022-10-26T06:24:49;97637.09;;;16.00;100.00
21980;BME280;11154;48.558;9.234;2022-10-26T06:27:00;97640.69;;;16.07;100.00
21980;BME280;11154;48.558;9.234;2022-10-26T06:29:16;97648.53;;;16.08;100.00
21980;BME280;11154;48.558;9.234;2022-10-26T06:31:19;97647.53;;;16.09;100.00
21980;BME280;11154;48.558;9.234;2022-10-26T06:33:21;97648.78;;;16.13;100.00
21980;BME280;11154;48.558;9.234;2022-10-26T06:35:29;97648.13;;;16.11;100.00
21980;BME280;11154;48.558;9.234;2022-10-26T06:37:37;97654.34;;;16.12;100.00
21980;BME280;11154;48.558;9.234;2022-10-26T06:39:43;97661.38;;;16.13;100.00
21980;BME280;11154;48.558;9.234;2022-10-26T06:41:46;97658.75;;;16.19;100.00
21980;BME280;11154;48.558;9.234;2022-10-26T06:43:48;97670.31;;;16.20;100.00
21980;BME280;11154;48.558;9.234;2022-10-26T06:46:01;97673.81;;;16.20;100.00
21980;BME280;11154;48.558;9.234;2022-10-26T06:48:08;97671.53;;;16.17;100.00
21980;BME280;11154;48.558;9.234;2022-10-26T06:50:18;97681.22;;;16.18;100.00
21980;BME280;11154;48.558;9.234;2022-10-26T06:52:31;97682.88;;;16.19;100.00
21980;BME280;11154;48.558;9.234;2022-10-26T06:54:45;97686.13;;;16.29;100.00
21980;BME280;11154;48.558;9.234;2022-10-26T06:56:48;97681.00;;;16.34;100.00
21980;BME280;11154;48.558;9.234;2022-10-26T06:58:51;97689.88;;;16.35;100.00
21980;BME280;11154;48.558;9.234;2022-10-26T07:00:54;97692.41;;;16.36;100.00
21980;BME280;11154;48.558;9.234;2022-10-26T07:02:56;97696.34;;;16.40;100.00
21980;BME280;11154;48.558;9.234;2022-10-26T07:04:59;97706.88;;;16.42;100.00
21980;BME280;11154;48.558;9.234;2022-10-26T07:07:00;97706.50;;;16.45;100.00
21980;BME280;11154;48.558;9.234;2022-10-26T07:09:02;97705.09;;;16.49;100.00
21980;BME280;11154;48.558;9.234;2022-10-26T07:11:05;97701.00;;;16.53;100.00
21980;BME280;11154;48.558;9.234;2022-10-26T07:13:09;97692.34;;;16.57;100.00
21980;BME280;11154;48.558;9.234;2022-10-26T07:15:11;97703.53;;;16.61;100.00
21980;BME280;11154;48.558;9.234;2022-10-26T07:17:13;97702.75;;;16.66;100.00
21980;BME280;11154;48.558;9.234;2022-10-26T07:19:16;97709.22;;;16.72;100.00
21980;BME280;11154;48.558;9.234;2022-10-26T07:21:17;97712.97;;;16.77;100.00
21980;BME280;11154;48.558;9.234;2022-10-26T07:23:19;97709.50;;;16.83;100.00
21980;BME280;11154;48.558;9.234;2022-10-26T07:25:23;97721.56;;;16.94;100.00
21980;BME280;11154;48.558;9.234;2022-10-26T07:27:26;97713.31;;;16.95;100.00
21980;BME280;11154;48.558;9.234;2022-10-26T07:29:28;97719.75;;;17.01;100.00
21980;BME280;11154;48.558;9.234;2022-10-26T07:31:30;97722.47;;;17.07;100.00
21980;BME280;11154;48.558;9.234;2022-10-26T07:33:32;97728.53;;;17.16;100.00
21980;BME280;11154;48.558;9.234;2022-10-26T07:35:34;97731.00;;;17.17;100.00
21980;BME280;11154;48.558;9.234;2022-10-26T07:37:36;97729.63;;;17.21;100.00
21980;BME280;11154;48.558;9.234;2022-10-26T07:39:37;97736.25;;;17.25;100.00
21980;BME280;11154;48.558;9.234;2022-10-26T07:41:39;97726.84;;;17.36;100.00
21980;BME280;11154;48.558;9.234;2022-10-26T07:43:44;97741.97;;;17.43;100.00
21980;BME280;11154;48.558;9.234;2022-10-26T07:45:48;97736.50;;;17.30;100.00
21980;BME280;11154;48.558;9.234;2022-10-26T07:47:50;97741.81;;;17.24;100.00
21980;BME280;11154;48.558;9.234;2022-10-26T07:49:52;97748.22;;;17.23;100.00
21980;BME280;11154;48.558;9.234;2022-10-26T07:51:54;97749.03;;;17.23;100.00
21980;BME280;11154;48.558;9.234;2022-10-26T07:53:55;97747.56;;;17.21;100.00
21980;BME280;11154;48.558;9.234;2022-10-26T07:55:57;97751.72;;;17.23;100.00
21980;BME280;11154;48.558;9.234;2022-10-26T07:57:59;97749.03;;;17.23;100.00
21980;BME280;11154;48.558;9.234;2022-10-26T08:00:03;97754.72;;;17.28;100.00
21980;BME280;11154;48.558;9.234;2022-10-26T08:02:05;97757.41;;;17.28;100.00
21980;BME280;11154;48.558;9.234;2022-10-26T08:04:06;97752.47;;;17.32;100.00
21980;BME280;11154;48.558;9.234;2022-10-26T08:06:08;97753.75;;;17.42;100.00
21980;BME280;11154;48.558;9.234;2022-10-26T08:08:09;97748.63;;;17.47;100.00
21980;BME280;11154;48.558;9.234;2022-10-26T08:10:13;97753.38;;;17.51;100.00
21980;BME280;11154;48.558;9.234;2022-10-26T08:12:14;97756.72;;;17.53;100.00
21980;BME280;11154;48.558;9.234;2022-10-26T08:14:16;97760.03;;;17.55;100.00
21980;BME280;11154;48.558;9.234;2022-10-26T08:16:19;97766.22;;;17.56;100.00
21980;BME280;11154;48.558;9.234;2022-10-26T08:18:21;97765.84;;;17.59;100.00
21980;BME280;11154;48.558;9.234;2022-10-26T08:20:23;97768.34;;;17.60;100.00
21980;BME280;11154;48.558;9.234;2022-10-26T08:22:24;97761.28;;;17.59;100.00
21980;BME280;11154;48.558;9.234;2022-10-26T08:24:26;97766.28;;;17.62;100.00
21980;BME280;11154;48.558;9.234;2022-10-26T08:26:28;97771.69;;;17.69;100.00
21980;BME280;11154;48.558;9.234;2022-10-26T08:28:30;97769.63;;;17.71;100.00
21980;BME280;11154;48.558;9.234;2022-10-26T08:30:32;97777.94;;;17.76;100.00
21980;BME280;11154;48.558;9.234;2022-10-26T08:32:35;97774.00;;;17.78;100.00
21980;BME280;11154;48.558;9.234;2022-10-26T08:34:36;97775.06;;;17.84;100.00
21980;BME280;11154;48.558;9.234;2022-10-26T08:36:38;97781.09;;;17.86;100.00
21980;BME280;11154;48.558;9.234;2022-10-26T08:38:40;97774.28;;;17.90;100.00
21980;BME280;11154;48.558;9.234;2022-10-26T08:40:42;97775.53;;;17.94;100.00
21980;BME280;11154;48.558;9.234;2022-10-26T08:42:46;97783.41;;;17.95;100.00
21980;BME280;11154;48.558;9.234;2022-10-26T08:44:54;97783.84;;;17.99;100.00
21980;BME280;11154;48.558;9.234;2022-10-26T08:47:02;97782.78;;;18.00;100.00
21980;BME280;11154;48.558;9.234;2022-10-26T08:49:17;97784.66;;;17.99;100.00
21980;BME280;11154;48.558;9.234;2022-10-26T08:51:22;97785.25;;;17.95;100.00
21980;BME280;11154;48.558;9.234;2022-10-26T08:53:28;97786.09;;;17.95;100.00
21980;BME280;11154;48.558;9.234;2022-10-26T08:55:38;97787.13;;;17.94;100.00
21980;BME280;11154;48.558;9.234;2022-10-26T08:57:41;97786.94;;;17.96;100.00
21980;BME280;11154;48.558;9.234;2022-10-26T08:59:46;97792.53;;;18.01;100.00
21980;BME280;11154;48.558;9.234;2022-10-26T09:01:49;97797.97;;;18.07;100.00
21980;BME280;11154;48.558;9.234;2022-10-26T09:03:51;97803.78;;;18.10;100.00
21980;BME280;11154;48.558;9.234;2022-10-26T09:06:04;97804.00;;;18.15;100.00
21980;BME280;11154;48.558;9.234;2022-10-26T09:08:14;97795.69;;;18.17;100.00
21980;BME280;11154;48.558;9.234;2022-10-26T09:10:26;97809.63;;;18.20;100.00
21980;BME280;11154;48.558;9.234;2022-10-26T09:12:40;97812.53;;;18.25;100.00
21980;BME280;11154;48.558;9.234;2022-10-26T09:14:52;97817.53;;;18.28;100.00
21980;BME280;11154;48.558;9.234;2022-10-26T09:17:06;97807.41;;;18.30;100.00
21980;BME280;11154;48.558;9.234;2022-10-26T09:19:42;97815.69;;;18.35;100.00
21980;BME280;11154;48.558;9.234;2022-10-26T09:21:52;97816.72;;;18.34;100.00
21980;BME280;11154;48.558;9.234;2022-10-26T09:24:02;97813.59;;;18.37;100.00
21980;BME280;11154;48.558;9.234;2022-10-26T09:26:12;97826.69;;;18.40;100.00
21980;BME280;11154;48.558;9.234;2022-10-26T09:28:15;97826.69;;;18.40;100.00
21980;BME280;11154;48.558;9.234;2022-10-26T09:30:19;97816.13;;;18.45;100.00
21980;BME280;11154;48.558;9.234;2022-10-26T09:32:25;97821.94;;;18.49;100.00
21980;BME280;11154;48.558;9.234;2022-10-26T09:34:33;97820.91;;;18.43;100.00
21980;BME280;11154;48.558;9.234;2022-10-26T09:36:38;97819.41;;;18.34;100.00
21980;BME280;11154;48.558;9.234;2022-10-26T09:38:43;97818.78;;;18.32;100.00
21980;BME280;11154;48.558;9.234;2022-10-26T09:40:53;97826.25;;;18.30;100.00
21980;BME280;11154;48.558;9.234;2022-10-26T09:43:00;97833.69;;;18.28;100.00
21980;BME280;11154;48.558;9.234;2022-10-26T09:45:12;97831.19;;;18.27;100.00
21980;BME280;11154;48.558;9.234;2022-10-26T09:47:28;97831.63;;;18.30;100.00
21980;BME280;11154;48.558;9.234;2022-10-26T09:49:37;97832.44;;;18.31;100.00
21980;BME280;11154;48.558;9.234;2022-10-26T09:51:42;97845.09;;;18.30;100.00
21980;BME280;11154;48.558;9.234;2022-10-26T09:53:47;97844.03;;;18.31;100.00
21980;BME280;11154;48.558;9.234;2022-10-26T09:55:49;97849.25;;;18.33;100.00
21980;BME280;11154;48.558;9.234;2022-10-26T09:57:58;97847.41;;;18.40;100.00
21980;BME280;11154;48.558;9.234;2022-10-26T10:00:01;97845.34;;;18.48;100.00
21980;BME280;11154;48.558;9.234;2022-10-26T10:02:31;97853.22;;;18.56;100.00
21980;BME280;11154;48.558;9.234;2022-10-26T10:04:32;97856.13;;;18.55;100.00
21980;BME280;11154;48.558;9.234;2022-10-26T10:06:34;97856.56;;;18.58;100.00
21980;BME280;11154;48.558;9.234;2022-10-26T10:08:36;97856.16;;;18.61;100.00
21980;BME280;11154;48.558;9.234;2022-10-26T10:10:52;97863.22;;;18.62;100.00
21980;BME280;11154;48.558;9.234;2022-10-26T10:12:54;97864.47;;;18.66;100.00
21980;BME280;11154;48.558;9.234;2022-10-26T10:14:57;97864.03;;;18.69;100.00
21980;BME280;11154;48.558;9.234;2022-10-26T10:17:01;97862.63;;;18.73;100.00
21980;BME280;11154;48.558;9.234;2022-10-26T10:19:03;97871.56;;;18.80;100.00
21980;BME280;11154;48.558;9.234;2022-10-26T10:21:05;97864.91;;;18.83;100.00
21980;BME280;11154;48.558;9.234;2022-10-26T10:23:24;97863.69;;;18.91;100.00
21980;BME280;11154;48.558;9.234;2022-10-26T10:25:37;97876.53;;;18.96;100.00
21980;BME280;11154;48.558;9.234;2022-10-26T10:27:51;97861.22;;;19.03;100.00
21980;BME280;11154;48.558;9.234;2022-10-26T10:29:54;97863.97;;;19.09;100.00
21980;BME280;11154;48.558;9.234;2022-10-26T10:31:58;97858.16;;;19.19;100.00
21980;BME280;11154;48.558;9.234;2022-10-26T10:34:14;97861.06;;;19.24;100.00
21980;BME280;11154;48.558;9.234;2022-10-26T10:36:19;97860.88;;;19.32;100.00
21980;BME280;11154;48.558;9.234;2022-10-26T10:38:21;97858.16;;;19.38;100.00
21980;BME280;11154;48.558;9.234;2022-10-26T10:40:24;97857.34;;;19.51;100.00
21980;BME280;11154;48.558;9.234;2022-10-26T10:42:29;97862.31;;;19.60;100.00
21980;BME280;11154;48.558;9.234;2022-10-26T10:44:33;97867.88;;;19.71;100.00
21980;BME280;11154;48.558;9.234;2022-10-26T10:46:35;97874.94;;;19.72;100.00
21980;BME280;11154;48.558;9.234;2022-10-26T10:48:46;97869.31;;;19.80;100.00
21980;BME280;11154;48.558;9.234;2022-10-26T10:50:51;97865.16;;;19.84;98.93
21980;BME280;11154;48.558;9.234;2022-10-26T10:53:12;97869.13;;;19.95;100.00